Time;durP1;ratioP1;P1;durP2;ratioP2;P2;SDS_P1;SDS_P2;PMS_P1;PMS_P2;Temp;Humidity;BMP_temperature;BMP_pressure;BME280_temperature;BME280_humidity;BME280_pressure;Samples;Min_cycle;Max_cycle;Signal;HPM_P1;HPM_P2
2022/07/11 00:02:15;;;;;;;2.80;2.60;;;20.40;95.20;;;;;;5038053;28;20443;-82
2022/07/11 00:04:43;;;;;;;4.40;2.40;;;20.30;95.40;;;;;;5034135;28;20469;-83
2022/07/11 00:07:09;;;;;;;5.73;2.77;;;20.30;95.50;;;;;;5031565;28;20477;-83
2022/07/11 00:09:36;;;;;;;4.53;2.60;;;20.20;95.60;;;;;;5033149;28;20452;-83
2022/07/11 00:12:04;;;;;;;2.80;2.60;;;20.30;95.70;;;;;;5027158;28;20528;-83
2022/07/11 00:14:30;;;;;;;2.47;2.30;;;20.20;95.70;;;;;;5026335;28;20930;-83
2022/07/11 00:16:57;;;;;;;2.70;2.33;;;20.20;95.90;;;;;;5030351;28;21002;-83
2022/07/11 00:19:24;;;;;;;2.60;2.23;;;20.20;95.90;;;;;;5030148;28;20458;-83
2022/07/11 00:21:51;;;;;;;2.53;2.33;;;20.30;96.00;;;;;;5033201;28;20447;-82
2022/07/11 00:24:19;;;;;;;4.20;2.43;;;20.20;95.90;;;;;;5025137;28;20528;-83
2022/07/11 00:26:48;;;;;;;4.23;2.63;;;20.20;95.90;;;;;;5033087;28;20464;-84
2022/07/11 00:29:16;;;;;;;4.20;3.00;;;20.20;95.90;;;;;;5032799;28;20448;-83
2022/07/11 00:31:43;;;;;;;3.60;2.70;;;20.20;96.00;;;;;;5025391;28;20480;-83
2022/07/11 00:34:10;;;;;;;2.90;2.67;;;20.20;96.00;;;;;;5027450;28;21195;-83
2022/07/11 00:36:37;;;;;;;5.50;2.50;;;20.20;96.00;;;;;;5031806;28;20931;-82
2022/07/11 00:39:03;;;;;;;3.17;2.73;;;20.20;96.10;;;;;;5033410;28;20474;-83
2022/07/11 00:41:30;;;;;;;4.60;2.50;;;20.20;96.20;;;;;;5031033;28;20449;-82
2022/07/11 00:43:58;;;;;;;3.53;3.20;;;20.20;96.20;;;;;;5029502;28;20958;-81
2022/07/11 00:46:27;;;;;;;2.77;2.47;;;20.20;96.20;;;;;;5028885;28;20749;-82
2022/07/11 00:48:54;;;;;;;3.00;2.70;;;20.20;96.30;;;;;;5027406;28;20469;-83
2022/07/11 00:51:22;;;;;;;3.77;2.20;;;20.10;96.30;;;;;;5036401;28;20449;-83
2022/07/11 00:53:51;;;;;;;2.63;2.20;;;20.10;96.40;;;;;;5027085;28;20458;-83
2022/07/11 00:56:24;;;;;;;3.37;2.53;;;20.10;96.50;;;;;;5034258;28;20457;-83
2022/07/11 00:58:53;;;;;;;3.23;2.40;;;20.10;96.50;;;;;;5031355;28;20600;-83
2022/07/11 01:01:20;;;;;;;2.90;2.70;;;20.10;96.60;;;;;;5033585;28;20481;-82
2022/07/11 01:03:48;;;;;;;4.03;2.63;;;20.10;96.60;;;;;;5038319;28;20538;-83
2022/07/11 01:06:15;;;;;;;3.40;2.70;;;20.10;96.70;;;;;;5037275;28;20501;-82
2022/07/11 01:08:43;;;;;;;5.00;2.93;;;20.10;96.70;;;;;;5031409;28;20496;-82
2022/07/11 01:11:18;;;;;;;4.10;2.57;;;20.10;96.70;;;;;;5033868;28;20496;-82
2022/07/11 01:13:47;;;;;;;3.00;2.70;;;20.00;96.70;;;;;;5026005;28;20666;-83
2022/07/11 01:16:16;;;;;;;3.97;2.40;;;20.00;96.70;;;;;;5023042;28;20470;-83
2022/07/11 01:18:48;;;;;;;5.13;4.03;;;20.00;96.70;;;;;;5024138;28;20566;-83
2022/07/11 01:21:35;;;;;;;4.03;2.67;;;20.00;96.70;;;;;;5023797;28;20441;-83
2022/07/11 01:24:02;;;;;;;3.73;2.80;;;20.00;96.80;;;;;;5024924;28;20470;-81
2022/07/11 01:26:29;;;;;;;3.03;2.50;;;19.90;96.90;;;;;;5030584;28;20464;-81
2022/07/11 01:29:14;;;;;;;4.47;3.00;;;19.90;97.00;;;;;;5026788;28;20478;-82
2022/07/11 01:31:44;;;;;;;2.83;2.63;;;19.90;97.10;;;;;;5024087;28;20450;-81
2022/07/11 01:34:11;;;;;;;5.03;2.73;;;19.90;97.20;;;;;;5028777;28;20465;-81
2022/07/11 01:36:38;;;;;;;4.67;2.90;;;19.80;97.30;;;;;;5026950;28;20467;-84
2022/07/11 01:39:06;;;;;;;3.80;2.87;;;19.70;97.40;;;;;;5024604;28;20576;-82
2022/07/11 01:41:32;;;;;;;6.13;3.23;;;19.70;97.50;;;;;;5025680;28;20944;-81
2022/07/11 01:43:59;;;;;;;7.70;3.70;;;19.70;97.60;;;;;;5023187;28;20458;-83
2022/07/11 01:46:26;;;;;;;9.23;2.63;;;19.70;97.60;;;;;;5027152;28;20476;-82
2022/07/11 01:48:53;;;;;;;5.70;3.10;;;19.70;97.70;;;;;;5026189;28;20535;-80
2022/07/11 01:51:19;;;;;;;3.03;2.73;;;19.80;98.10;;;;;;5025858;28;20461;-82
2022/07/11 01:53:46;;;;;;;3.80;2.70;;;19.70;97.70;;;;;;5030155;28;20469;-82
2022/07/11 01:56:13;;;;;;;4.80;3.30;;;19.80;98.00;;;;;;5029413;28;20465;-82
2022/07/11 01:58:45;;;;;;;3.60;2.70;;;19.80;97.70;;;;;;5031227;28;20488;-83
2022/07/11 02:01:12;;;;;;;4.30;2.50;;;19.70;97.70;;;;;;5033517;28;20497;-83
2022/07/11 02:03:39;;;;;;;4.50;3.23;;;19.70;97.80;;;;;;5048240;28;20445;-84
2022/07/11 02:06:06;;;;;;;3.43;2.90;;;19.60;97.90;;;;;;5040668;28;20497;-83
2022/07/11 02:08:32;;;;;;;3.83;3.07;;;19.70;98.10;;;;;;5031484;28;20470;-81
2022/07/11 02:10:59;;;;;;;2.57;2.40;;;19.60;98.10;;;;;;5043908;28;20453;-82
2022/07/11 02:13:27;;;;;;;6.40;3.03;;;19.60;98.20;;;;;;5038549;28;20485;-81
2022/07/11 02:15:54;;;;;;;3.97;3.00;;;19.60;98.30;;;;;;5036175;28;20468;-83
2022/07/11 02:18:21;;;;;;;4.83;3.00;;;19.60;98.40;;;;;;5032703;28;20489;-81
2022/07/11 02:20:51;;;;;;;4.10;3.00;;;19.50;98.50;;;;;;5025442;28;20464;-83
2022/07/11 02:23:19;;;;;;;3.73;2.73;;;19.50;98.80;;;;;;5028893;28;20454;-82
2022/07/11 02:25:46;;;;;;;3.10;2.90;;;19.40;98.90;;;;;;5025436;28;20513;-82
2022/07/11 02:28:14;;;;;;;5.93;3.40;;;19.40;99.00;;;;;;5025063;28;20536;-83
2022/07/11 02:30:43;;;;;;;5.43;3.80;;;19.40;99.10;;;;;;5032672;28;20453;-83
2022/07/11 02:33:16;;;;;;;5.00;3.67;;;19.40;99.10;;;;;;5029464;28;21038;-82
2022/07/11 02:35:45;;;;;;;4.10;2.80;;;19.40;99.30;;;;;;5022840;28;20457;-83
2022/07/11 02:38:14;;;;;;;7.47;3.80;;;19.30;99.30;;;;;;5028356;28;20489;-82
2022/07/11 02:40:41;;;;;;;4.47;3.20;;;19.30;99.40;;;;;;5024607;28;20446;-84
2022/07/11 02:43:08;;;;;;;4.23;3.47;;;19.30;99.50;;;;;;5027597;28;20465;-83
2022/07/11 02:45:36;;;;;;;6.70;3.40;;;19.30;99.50;;;;;;5028782;28;20466;-83
2022/07/11 02:48:03;;;;;;;3.87;3.10;;;19.20;99.60;;;;;;5029198;28;20513;-83
2022/07/11 02:50:30;;;;;;;5.23;3.30;;;19.10;99.80;;;;;;5023601;28;20449;-83
2022/07/11 02:52:57;;;;;;;3.83;3.53;;;19.10;99.90;;;;;;5028209;28;20454;-83
2022/07/11 02:55:23;;;;;;;4.13;3.73;;;19.10;99.90;;;;;;5031155;28;20491;-83
2022/07/11 02:57:50;;;;;;;4.87;4.47;;;19.00;99.90;;;;;;5037951;28;20491;-82
2022/07/11 03:00:18;;;;;;;5.43;3.90;;;19.00;99.90;;;;;;5031063;28;20449;-82
2022/07/11 03:02:45;;;;;;;3.83;3.40;;;19.00;99.90;;;;;;5027571;28;20450;-82
2022/07/11 03:05:15;;;;;;;4.17;3.73;;;19.00;99.90;;;;;;5031043;28;20541;-81
2022/07/11 03:07:42;;;;;;;4.10;3.47;;;19.00;99.90;;;;;;5032120;28;20489;-82
2022/07/11 03:10:10;;;;;;;4.67;3.43;;;19.00;99.90;;;;;;5031768;28;20545;-82
2022/07/11 03:12:38;;;;;;;4.70;3.80;;;19.00;99.90;;;;;;5033184;28;20469;-82
2022/07/11 03:15:05;;;;;;;4.43;3.70;;;18.90;99.90;;;;;;5037144;28;20461;-82
2022/07/11 03:17:32;;;;;;;6.60;4.00;;;18.90;99.90;;;;;;5028891;28;20476;-80
2022/07/11 03:20:00;;;;;;;4.30;3.17;;;18.80;99.90;;;;;;5031582;28;20954;-84
2022/07/11 03:22:27;;;;;;;5.70;3.40;;;18.80;99.90;;;;;;5027526;28;20998;-82
2022/07/11 03:24:54;;;;;;;4.60;3.60;;;18.80;99.90;;;;;;5029915;28;20449;-84
2022/07/11 03:27:21;;;;;;;6.47;3.70;;;18.70;99.90;;;;;;5032464;28;20507;-84
2022/07/11 03:29:48;;;;;;;5.37;3.67;;;18.70;99.90;;;;;;5027620;28;20457;-81
2022/07/11 03:32:14;;;;;;;4.13;3.73;;;18.70;99.90;;;;;;5026449;28;20505;-82
2022/07/11 03:35:40;;;;;;;4.77;3.97;;;18.70;99.90;;;;;;5034910;28;20492;-82
2022/07/11 03:37:28;;;;;;;6.33;4.37;;;18.70;99.90;;;;;;5032495;28;20469;-82
2022/07/11 03:39:54;;;;;;;3.73;3.43;;;18.70;99.90;;;;;;5035251;28;20457;-82
2022/07/11 03:42:21;;;;;;;4.87;3.60;;;18.70;99.90;;;;;;5024683;28;20442;-82
2022/07/11 03:44:48;;;;;;;5.07;3.47;;;18.70;99.90;;;;;;5033722;28;20457;-82
2022/07/11 03:47:14;;;;;;;4.20;3.60;;;18.80;99.90;;;;;;5027073;28;20486;-83
2022/07/11 03:49:41;;;;;;;4.73;3.73;;;18.70;99.90;;;;;;5033396;28;20458;-81
2022/07/11 03:52:08;;;;;;;4.40;4.00;;;18.70;99.90;;;;;;5035448;28;20962;-82
2022/07/11 03:54:34;;;;;;;4.73;4.10;;;18.70;99.90;;;;;;5034525;28;20461;-82
2022/07/11 03:57:02;;;;;;;5.90;4.30;;;18.70;99.90;;;;;;5030853;28;20465;-83
2022/07/11 03:59:28;;;;;;;7.00;4.10;;;18.70;99.90;;;;;;5029272;28;20477;-83
2022/07/11 04:01:55;;;;;;;5.20;4.50;;;18.70;99.90;;;;;;5034383;28;20441;-82
2022/07/11 04:04:22;;;;;;;3.80;3.50;;;18.70;99.90;;;;;;5029400;28;20458;-82
2022/07/11 04:06:49;;;;;;;5.60;3.70;;;18.70;99.90;;;;;;5028410;28;20454;-81
2022/07/11 04:09:15;;;;;;;6.03;4.63;;;18.80;99.90;;;;;;5032409;28;20454;-82
2022/07/11 04:11:42;;;;;;;5.20;4.50;;;18.70;99.90;;;;;;5025937;28;20466;-82
2022/07/11 04:14:08;;;;;;;5.00;4.60;;;18.70;99.90;;;;;;5023677;28;20516;-82
2022/07/11 04:16:35;;;;;;;4.50;3.83;;;18.70;99.90;;;;;;5031883;28;20472;-82
2022/07/11 04:19:02;;;;;;;7.23;4.50;;;18.60;99.90;;;;;;5029116;28;21075;-82
2022/07/11 04:21:28;;;;;;;4.07;3.50;;;18.60;99.90;;;;;;5024478;28;20461;-82
2022/07/11 04:23:55;;;;;;;5.00;4.20;;;18.50;99.90;;;;;;5028736;28;20443;-82
2022/07/11 04:26:21;;;;;;;4.87;4.40;;;18.50;99.90;;;;;;5030010;28;20464;-82
2022/07/11 04:28:48;;;;;;;5.30;4.27;;;18.60;99.90;;;;;;5022284;28;20477;-82
2022/07/11 04:31:15;;;;;;;5.67;4.27;;;18.60;99.90;;;;;;5031876;28;20450;-81
2022/07/11 04:33:41;;;;;;;6.03;4.47;;;18.50;99.90;;;;;;5032986;28;20463;-82
2022/07/11 04:36:09;;;;;;;6.40;4.60;;;18.50;99.90;;;;;;5029775;28;20473;-82
2022/07/11 04:38:35;;;;;;;4.97;4.13;;;18.50;99.90;;;;;;5031010;28;20566;-83
2022/07/11 04:41:02;;;;;;;4.83;3.90;;;18.60;99.90;;;;;;5029672;28;20456;-82
2022/07/11 04:43:29;;;;;;;5.53;4.20;;;18.60;99.90;;;;;;5029550;28;20458;-82
2022/07/11 04:45:55;;;;;;;7.30;4.90;;;18.60;99.90;;;;;;5030216;28;20495;-82
2022/07/11 04:48:25;;;;;;;6.30;4.60;;;18.70;99.90;;;;;;5031907;28;20531;-82
2022/07/11 04:50:53;;;;;;;5.80;4.57;;;18.70;99.90;;;;;;5025185;28;20449;-82
2022/07/11 04:53:20;;;;;;;6.40;4.67;;;18.70;99.90;;;;;;5031115;28;20799;-83
2022/07/11 04:55:47;;;;;;;5.33;3.97;;;18.80;99.90;;;;;;5032100;28;20450;-82
2022/07/11 04:58:13;;;;;;;5.30;4.03;;;18.80;99.90;;;;;;5028614;28;20496;-82
2022/07/11 05:00:40;;;;;;;4.90;4.40;;;18.80;99.90;;;;;;5027433;28;20442;-82
2022/07/11 05:03:08;;;;;;;4.27;3.87;;;18.90;99.90;;;;;;5025337;28;20457;-83
2022/07/11 05:05:35;;;;;;;4.87;4.37;;;18.90;99.90;;;;;;5022827;28;20472;-84
2022/07/11 05:08:03;;;;;;;7.03;4.90;;;18.90;99.90;;;;;;5027611;28;20478;-83
2022/07/11 05:10:31;;;;;;;7.27;6.53;;;19.00;99.90;;;;;;5025854;28;20453;-82
2022/07/11 05:12:57;;;;;;;4.50;4.10;;;19.00;99.90;;;;;;5030196;28;20443;-82
2022/07/11 05:15:24;;;;;;;6.00;4.93;;;18.90;99.90;;;;;;5030460;28;20464;-82
2022/07/11 05:17:51;;;;;;;6.00;4.77;;;18.90;99.90;;;;;;5023772;28;20458;-82
2022/07/11 05:20:18;;;;;;;6.03;4.20;;;18.90;99.90;;;;;;5041513;28;20446;-82
2022/07/11 05:22:44;;;;;;;8.10;4.47;;;18.90;99.90;;;;;;5033892;28;20498;-79
2022/07/11 05:25:11;;;;;;;7.33;4.67;;;19.00;99.90;;;;;;5032114;28;20449;-82
2022/07/11 05:27:38;;;;;;;6.90;5.03;;;19.00;99.90;;;;;;5030689;28;20470;-82
2022/07/11 05:30:05;;;;;;;7.73;4.63;;;19.10;99.90;;;;;;5026400;28;20437;-80
2022/07/11 05:32:33;;;;;;;5.87;3.67;;;19.10;99.90;;;;;;5036102;28;20461;-80
2022/07/11 05:35:03;;;;;;;7.63;4.70;;;19.10;99.90;;;;;;5038898;28;20449;-83
2022/07/11 05:37:30;;;;;;;5.73;4.33;;;19.10;99.90;;;;;;5031530;28;20480;-82
2022/07/11 05:39:57;;;;;;;6.00;4.93;;;19.10;99.90;;;;;;5035081;28;20482;-81
2022/07/11 05:42:30;;;;;;;5.10;4.40;;;19.10;99.90;;;;;;5027358;28;20456;-82
2022/07/11 05:44:57;;;;;;;5.90;5.23;;;19.20;99.90;;;;;;5025036;28;20446;-82
2022/07/11 05:47:23;;;;;;;7.93;4.60;;;19.20;99.90;;;;;;5033297;28;20484;-82
2022/07/11 05:49:50;;;;;;;4.90;4.50;;;19.20;99.90;;;;;;5029326;28;20519;-83
2022/07/11 05:52:17;;;;;;;4.90;4.40;;;19.20;99.90;;;;;;5031434;28;20453;-82
2022/07/11 05:54:43;;;;;;;5.10;4.23;;;19.20;99.90;;;;;;5025159;28;22851;-82
2022/07/11 05:57:10;;;;;;;5.70;4.93;;;19.20;99.90;;;;;;5028865;28;20490;-82
2022/07/11 05:59:38;;;;;;;5.63;4.73;;;19.20;99.90;;;;;;5029446;28;20494;-80
2022/07/11 06:02:07;;;;;;;7.90;4.97;;;19.20;99.90;;;;;;5030563;28;20468;-80
2022/07/11 06:04:33;;;;;;;8.80;4.60;;;19.20;99.90;;;;;;5027259;28;20462;-83
2022/07/11 06:07:00;;;;;;;6.77;4.37;;;19.20;99.90;;;;;;5024996;28;20471;-81
2022/07/11 06:09:27;;;;;;;6.90;4.70;;;19.20;99.90;;;;;;5025188;28;20469;-80
2022/07/11 06:11:53;;;;;;;5.43;4.13;;;19.20;99.90;;;;;;5023679;28;20466;-83
2022/07/11 06:14:20;;;;;;;7.63;4.40;;;19.20;99.90;;;;;;5029421;28;20453;-83
2022/07/11 06:16:48;;;;;;;8.77;5.57;;;19.10;99.90;;;;;;5026238;28;20454;-83
2022/07/11 06:19:14;;;;;;;6.80;5.13;;;19.10;99.90;;;;;;5024084;28;20606;-82
2022/07/11 06:21:42;;;;;;;6.30;5.70;;;19.10;99.90;;;;;;5032111;28;20456;-82
2022/07/11 06:24:09;;;;;;;5.23;4.43;;;19.20;99.90;;;;;;5027199;28;20465;-83
2022/07/11 06:26:36;;;;;;;5.93;4.97;;;19.10;99.90;;;;;;5024924;28;20455;-82
2022/07/11 06:29:03;;;;;;;5.53;4.90;;;19.10;99.90;;;;;;5025820;28;20926;-81
2022/07/11 06:31:30;;;;;;;7.80;5.30;;;19.20;99.90;;;;;;5025002;28;20450;-82
2022/07/11 06:33:57;;;;;;;5.90;5.00;;;19.20;99.90;;;;;;5033460;28;20445;-81
2022/07/11 06:36:24;;;;;;;7.43;4.90;;;19.10;99.90;;;;;;5032444;28;23381;-80
2022/07/11 06:38:52;;;;;;;6.07;5.20;;;19.10;99.90;;;;;;5033790;28;20564;-83
2022/07/11 06:41:19;;;;;;;6.03;5.10;;;19.10;99.90;;;;;;5041055;28;20449;-82
2022/07/11 06:43:47;;;;;;;8.93;4.93;;;19.20;99.90;;;;;;5032674;28;20457;-81
2022/07/11 06:46:16;;;;;;;6.73;5.07;;;19.30;99.90;;;;;;5036464;28;20485;-82
2022/07/11 06:48:43;;;;;;;5.50;4.03;;;19.30;99.90;;;;;;5036882;28;20508;-82
2022/07/11 06:51:10;;;;;;;8.90;4.43;;;19.40;99.90;;;;;;5032415;28;20473;-81
2022/07/11 06:53:36;;;;;;;7.40;4.60;;;19.50;99.90;;;;;;5059917;28;20449;-83
2022/07/11 06:56:03;;;;;;;8.40;4.70;;;19.50;99.90;;;;;;5045741;28;20438;-82
2022/07/11 06:58:32;;;;;;;6.00;5.37;;;19.60;99.90;;;;;;5030655;28;20508;-81
2022/07/11 07:01:01;;;;;;;12.50;9.07;;;19.50;99.90;;;;;;5031011;28;20445;-81
2022/07/11 07:03:28;;;;;;;6.53;5.37;;;19.50;99.90;;;;;;5032198;28;20457;-83
2022/07/11 07:05:56;;;;;;;11.00;5.97;;;19.60;99.90;;;;;;5035453;28;20450;-81
2022/07/11 07:08:24;;;;;;;7.30;5.87;;;19.60;99.90;;;;;;5034744;28;20900;-82
2022/07/11 07:10:51;;;;;;;6.50;5.73;;;19.70;99.90;;;;;;5040241;28;20458;-80
2022/07/11 07:13:20;;;;;;;7.17;5.30;;;19.70;99.90;;;;;;5034562;28;20536;-83
2022/07/11 07:15:48;;;;;;;6.93;5.53;;;20.10;99.90;;;;;;5041158;28;20476;-82
2022/07/11 07:18:14;;;;;;;5.87;5.23;;;20.00;99.90;;;;;;5029799;28;20551;-81
2022/07/11 07:20:41;;;;;;;6.00;5.50;;;20.20;99.90;;;;;;5028015;28;20508;-82
2022/07/11 07:23:08;;;;;;;6.10;4.90;;;20.30;99.60;;;;;;5025753;28;20504;-83
2022/07/11 07:25:35;;;;;;;7.53;5.30;;;20.20;99.50;;;;;;5027609;28;20464;-82
2022/07/11 07:28:02;;;;;;;5.67;5.00;;;20.30;99.40;;;;;;5026925;28;20581;-82
2022/07/11 07:30:29;;;;;;;5.30;4.70;;;20.20;99.20;;;;;;5029326;28;21988;-81
2022/07/11 07:32:55;;;;;;;8.63;5.63;;;20.30;99.30;;;;;;5026740;28;20460;-82
2022/07/11 07:35:22;;;;;;;7.23;6.13;;;20.50;98.60;;;;;;5028218;28;20472;-82
2022/07/11 07:37:49;;;;;;;5.90;5.40;;;20.50;98.70;;;;;;5025423;28;20481;-82
2022/07/11 07:40:15;;;;;;;8.43;5.60;;;20.40;98.80;;;;;;5027500;28;20500;-83
2022/07/11 07:42:42;;;;;;;5.30;4.80;;;20.30;98.90;;;;;;5031847;28;20935;-83
2022/07/11 07:45:11;;;;;;;11.30;6.40;;;20.20;99.00;;;;;;5035081;28;20461;-81
2022/07/11 07:47:38;;;;;;;6.43;5.50;;;20.10;99.30;;;;;;5042431;28;20464;-79
2022/07/11 07:50:05;;;;;;;6.63;6.03;;;20.20;99.40;;;;;;5038409;28;20453;-82
2022/07/11 07:52:32;;;;;;;6.37;5.77;;;20.00;99.00;;;;;;5037372;28;20449;-82
2022/07/11 07:54:59;;;;;;;6.73;6.20;;;20.00;99.40;;;;;;5049167;28;20506;-81
2022/07/11 07:57:26;;;;;;;7.57;6.93;;;20.00;99.40;;;;;;5043881;28;20663;-82
2022/07/11 08:01:34;;;;;;;7.30;6.70;;;20.00;99.30;;;;;;5032337;28;20486;-81
2022/07/11 08:02:42;;;;;;;8.93;7.53;;;19.90;99.10;;;;;;5030970;28;20442;-80
2022/07/11 08:05:09;;;;;;;8.47;7.73;;;20.00;99.20;;;;;;5030564;28;20544;-82
2022/07/11 08:07:36;;;;;;;10.50;7.63;;;20.00;99.00;;;;;;5033119;28;20548;-82
2022/07/11 08:10:06;;;;;;;7.53;6.83;;;20.00;99.00;;;;;;5025527;28;20459;-83
2022/07/11 08:12:33;;;;;;;8.17;6.87;;;20.00;99.10;;;;;;5033734;28;20561;-81
2022/07/11 08:15:00;;;;;;;7.37;6.70;;;20.00;99.10;;;;;;5033187;28;20460;-83
2022/07/11 08:17:26;;;;;;;9.40;8.60;;;20.00;99.20;;;;;;5034173;28;20480;-84
2022/07/11 08:19:53;;;;;;;9.37;8.47;;;20.00;99.10;;;;;;5029075;28;20473;-83
2022/07/11 08:22:20;;;;;;;10.43;9.33;;;20.00;99.00;;;;;;5037128;28;20448;-82
2022/07/11 08:24:47;;;;;;;10.17;9.27;;;20.20;98.80;;;;;;5034920;28;20492;-83
2022/07/11 08:27:13;;;;;;;11.63;10.50;;;20.20;98.80;;;;;;5035149;28;20477;-82
2022/07/11 08:30:03;;;;;;;11.33;10.07;;;20.20;98.60;;;;;;5023587;28;20438;-83
2022/07/11 08:32:29;;;;;;;12.00;10.90;;;20.40;98.50;;;;;;5035546;28;20425;-79
2022/07/11 08:34:56;;;;;;;11.93;10.87;;;20.40;98.20;;;;;;5041241;28;20467;-79
2022/07/11 08:37:23;;;;;;;12.70;11.40;;;20.40;98.20;;;;;;5037436;28;20531;-82
2022/07/11 08:39:49;;;;;;;12.30;11.20;;;20.80;97.80;;;;;;5041902;28;20756;-80
2022/07/11 08:42:19;;;;;;;12.70;11.50;;;20.80;97.70;;;;;;5041908;28;20449;-81
2022/07/11 08:44:46;;;;;;;11.53;10.50;;;20.70;97.50;;;;;;5039521;28;20446;-80
2022/07/11 08:47:13;;;;;;;12.30;11.10;;;20.60;97.70;;;;;;5039066;28;20844;-81
2022/07/11 08:49:41;;;;;;;11.40;10.40;;;20.60;97.80;;;;;;5032368;28;20530;-81
2022/07/11 08:52:08;;;;;;;11.87;10.77;;;20.70;97.80;;;;;;5045474;28;20471;-82
2022/07/11 08:54:35;;;;;;;11.40;10.30;;;20.60;97.80;;;;;;5035426;28;20445;-80
2022/07/11 08:57:03;;;;;;;12.47;11.33;;;20.70;97.90;;;;;;5030928;28;20473;-79
2022/07/11 08:59:33;;;;;;;12.63;11.10;;;20.80;97.80;;;;;;5038490;28;20870;-83
2022/07/11 09:02:03;;;;;;;13.13;11.93;;;20.80;97.80;;;;;;5038844;28;20449;-79
2022/07/11 09:04:30;;;;;;;12.03;10.93;;;20.70;98.00;;;;;;5040959;28;20448;-81
2022/07/11 09:07:00;;;;;;;13.67;12.57;;;20.70;98.10;;;;;;5030386;28;20457;-81
2022/07/11 09:09:30;;;;;;;12.60;11.43;;;20.60;98.10;;;;;;5040646;28;20438;-82
2022/07/11 09:11:58;;;;;;;14.90;13.70;;;20.60;98.20;;;;;;5040496;28;20460;-82
2022/07/11 09:14:25;;;;;;;15.93;14.43;;;21.00;97.80;;;;;;5047885;28;20486;-83
2022/07/11 09:16:59;;;;;;;15.27;13.97;;;20.90;97.60;;;;;;5049688;28;20465;-83
2022/07/11 09:19:28;;;;;;;16.60;15.20;;;20.90;97.50;;;;;;5050876;28;20489;-83
2022/07/11 09:25:21;;;;;;;17.63;15.93;;;21.40;97.00;;;;;;5044489;28;20457;-82
2022/07/11 09:27:49;;;;;;;16.43;15.03;;;21.20;97.10;;;;;;5025940;28;20481;-81
2022/07/11 09:30:24;;;;;;;12.90;11.90;;;21.20;97.50;;;;;;5053921;28;20454;-82
2022/07/11 09:33:09;;;;;;;12.77;11.80;;;21.20;97.30;;;;;;5040210;28;20456;-82
2022/07/11 09:35:39;;;;;;;13.63;12.33;;;21.40;96.80;;;;;;5032492;28;20446;-80
2022/07/11 09:38:08;;;;;;;12.53;11.23;;;21.50;96.90;;;;;;5034661;28;20484;-84
2022/07/11 09:40:35;;;;;;;13.10;12.10;;;21.30;97.40;;;;;;5023610;28;20489;-83
2022/07/11 09:43:03;;;;;;;11.27;10.30;;;21.00;97.50;;;;;;5034292;28;20450;-81
2022/07/11 09:45:32;;;;;;;12.23;10.77;;;20.90;97.80;;;;;;5029910;28;20520;-83
2022/07/11 09:48:07;;;;;;;12.87;11.80;;;20.90;98.00;;;;;;5032767;28;20479;-83
2022/07/11 09:50:36;;;;;;;16.30;14.83;;;21.20;98.10;;;;;;5031666;28;20489;-83
2022/07/11 09:53:12;;;;;;;16.27;14.67;;;21.30;97.40;;;;;;5031585;28;20461;-83
2022/07/11 09:55:41;;;;;;;17.97;16.40;;;21.30;97.40;;;;;;5037043;28;20966;-81
2022/07/11 09:58:18;;;;;;;15.70;14.50;;;21.20;97.50;;;;;;5034420;28;20482;-83
2022/07/11 10:00:46;;;;;;;18.50;17.07;;;21.10;97.70;;;;;;5042482;28;20474;-83
2022/07/11 10:03:13;;;;;;;18.00;16.33;;;21.50;97.00;;;;;;5036633;28;20446;-83
2022/07/11 10:06:00;;;;;;;18.03;16.50;;;21.80;96.50;;;;;;5042209;28;20449;-83
2022/07/11 10:08:27;;;;;;;18.27;16.67;;;21.60;96.60;;;;;;5042055;28;20540;-81
2022/07/11 10:10:55;;;;;;;18.33;16.60;;;21.50;96.60;;;;;;5037619;28;20473;-83
2022/07/11 10:13:23;;;;;;;16.83;15.30;;;21.60;96.90;;;;;;5045358;28;20540;-81
2022/07/11 10:15:53;;;;;;;17.97;16.37;;;21.80;96.50;;;;;;5037291;28;20512;-84
2022/07/11 10:18:29;;;;;;;18.03;16.53;;;21.60;96.40;;;;;;5022410;28;21019;-84
2022/07/11 10:20:58;;;;;;;17.13;15.73;;;21.60;96.60;;;;;;5030366;28;20472;-83
2022/07/11 10:23:51;;;;;;;15.67;14.30;;;21.60;96.40;;;;;;5029339;28;20453;-83
2022/07/11 10:26:30;;;;;;;14.70;13.40;;;21.50;96.80;;;;;;5030803;28;20457;-83
2022/07/11 10:29:07;;;;;;;15.10;13.80;;;21.30;96.90;;;;;;5028883;28;20469;-83
2022/07/11 10:31:34;;;;;;;13.80;12.70;;;21.50;97.10;;;;;;5030305;28;21123;-83
2022/07/11 10:34:27;;;;;;;13.00;11.90;;;21.40;97.00;;;;;;5024690;28;20437;-82
2022/07/11 10:37:04;;;;;;;13.70;12.50;;;21.40;97.00;;;;;;5024409;28;20865;-83
2022/07/11 10:39:34;;;;;;;14.23;12.83;;;21.40;97.00;;;;;;5024809;28;20484;-83
2022/07/11 10:42:04;;;;;;;13.90;12.70;;;21.20;97.10;;;;;;5025866;28;20463;-84
2022/07/11 10:44:53;;;;;;;15.60;14.20;;;21.30;97.60;;;;;;5024298;28;20449;-82
2022/07/11 10:47:41;;;;;;;16.50;15.20;;;21.80;97.20;;;;;;5022965;28;20469;-82
2022/07/11 10:50:30;;;;;;;14.43;13.20;;;21.80;96.50;;;;;;5021920;28;20458;-82
2022/07/11 10:52:57;;;;;;;15.47;14.33;;;22.40;96.00;;;;;;5026457;28;20466;-82
2022/07/11 10:55:44;;;;;;;14.93;13.73;;;22.40;95.20;;;;;;5028768;28;20461;-81
2022/07/11 10:58:28;;;;;;;15.63;14.30;;;22.30;95.20;;;;;;5027541;28;20469;-82
2022/07/11 11:01:11;;;;;;;14.97;13.87;;;22.10;95.30;;;;;;5024801;28;20472;-81
2022/07/11 11:03:42;;;;;;;16.23;14.60;;;22.00;95.90;;;;;;5025716;28;20816;-83
2022/07/11 11:06:10;;;;;;;15.37;14.17;;;21.80;96.40;;;;;;5024478;28;20482;-83
2022/07/11 11:08:37;;;;;;;14.03;12.87;;;21.50;96.50;;;;;;5027332;28;20860;-83
2022/07/11 11:11:34;;;;;;;14.20;13.10;;;21.40;96.90;;;;;;5031845;28;20575;-83
2022/07/11 11:14:21;;;;;;;14.20;12.93;;;21.30;97.30;;;;;;5030188;28;20465;-80
2022/07/11 11:16:49;;;;;;;17.53;16.13;;;21.20;97.60;;;;;;5032648;28;20460;-82
2022/07/11 11:19:44;;;;;;;16.27;14.97;;;21.20;97.70;;;;;;5037520;28;20796;-83
2022/07/11 11:22:15;;;;;;;15.47;14.23;;;21.20;97.90;;;;;;5029180;28;20465;-82
2022/07/11 11:24:47;;;;;;;16.07;14.77;;;21.20;97.90;;;;;;5032806;28;20450;-82
2022/07/11 11:27:33;;;;;;;16.27;14.93;;;21.30;97.70;;;;;;5028740;28;21033;-82
2022/07/11 11:30:02;;;;;;;16.50;15.30;;;21.30;97.60;;;;;;5030742;28;20482;-81
2022/07/11 11:32:34;;;;;;;17.03;15.73;;;21.40;97.60;;;;;;5028915;28;20441;-83
2022/07/11 11:35:01;;;;;;;20.17;18.57;;;22.00;96.60;;;;;;5030933;28;20513;-82
2022/07/11 11:37:28;;;;;;;18.40;16.90;;;22.00;96.10;;;;;;5052137;28;20508;-84
2022/07/11 11:39:59;;;;;;;18.60;17.10;;;21.70;96.40;;;;;;5026865;28;20535;-81
2022/07/11 11:42:28;;;;;;;17.80;16.30;;;21.60;96.70;;;;;;5020870;28;20464;-81
2022/07/11 11:45:01;;;;;;;17.13;15.80;;;21.40;97.00;;;;;;5028332;28;20493;-81
2022/07/11 11:47:32;;;;;;;16.07;14.80;;;21.30;97.20;;;;;;5029794;28;21042;-82
2022/07/11 11:49:58;;;;;;;18.77;17.27;;;21.20;97.50;;;;;;5027427;28;20463;-81
2022/07/11 11:52:28;;;;;;;14.17;13.07;;;21.20;97.60;;;;;;5020998;28;20473;-82
2022/07/11 11:54:58;;;;;;;15.40;14.30;;;21.30;97.50;;;;;;5023617;28;20462;-80
2022/07/11 11:57:28;;;;;;;14.13;12.93;;;21.30;97.30;;;;;;5024158;28;20500;-82
2022/07/11 11:59:56;;;;;;;15.20;14.00;;;21.40;97.10;;;;;;5025792;28;20481;-81
2022/07/11 12:02:28;;;;;;;14.27;13.17;;;21.70;97.00;;;;;;5033279;28;20449;-82
2022/07/11 12:04:58;;;;;;;13.90;12.80;;;21.90;96.40;;;;;;5033473;28;20465;-82
2022/07/11 12:07:27;;;;;;;14.27;13.00;;;22.40;95.50;;;;;;5033999;28;20497;-82
2022/07/11 12:09:55;;;;;;;13.90;12.50;;;22.30;95.00;;;;;;5025880;28;20791;-79
2022/07/11 12:12:43;;;;;;;14.20;13.00;;;22.10;95.30;;;;;;5030298;28;20452;-81
2022/07/11 12:15:28;;;;;;;13.50;12.30;;;22.00;95.40;;;;;;5026431;28;20452;-82
2022/07/11 12:17:59;;;;;;;13.60;12.40;;;21.80;95.90;;;;;;5035117;28;20496;-83
2022/07/11 12:20:41;;;;;;;17.17;15.57;;;21.70;96.00;;;;;;5032493;28;20477;-82
2022/07/11 12:23:15;;;;;;;13.60;12.50;;;21.60;96.00;;;;;;5030120;28;20844;-80
2022/07/11 12:25:48;;;;;;;14.20;13.10;;;21.60;96.60;;;;;;5030802;28;20481;-82
2022/07/11 12:28:15;;;;;;;13.90;12.90;;;21.60;96.10;;;;;;5029198;28;20468;-83
2022/07/11 12:30:42;;;;;;;13.90;12.73;;;21.80;96.00;;;;;;5030209;28;20466;-82
2022/07/11 12:33:11;;;;;;;13.47;12.47;;;21.70;95.90;;;;;;5032064;28;20464;-83
2022/07/11 12:35:56;;;;;;;13.93;12.80;;;21.70;95.90;;;;;;5032524;28;20472;-83
2022/07/11 12:38:23;;;;;;;14.87;13.70;;;21.70;95.90;;;;;;5030852;22;20494;-82
2022/07/11 12:41:04;;;;;;;14.20;13.00;;;21.60;96.00;;;;;;5014467;28;20481;-82
2022/07/11 12:46:25;;;;;;;12.73;11.70;;;21.60;95.90;;;;;;5015077;28;20459;-83
2022/07/11 12:48:52;;;;;;;13.60;12.37;;;21.80;95.90;;;;;;5016932;28;20486;-84
2022/07/11 12:51:39;;;;;;;11.80;10.80;;;21.90;95.80;;;;;;5015563;28;20960;-83
2022/07/11 12:54:16;;;;;;;12.73;11.53;;;21.90;95.60;;;;;;5010306;28;20446;-81
2022/07/11 12:56:53;;;;;;;12.97;11.80;;;22.50;95.10;;;;;;5005863;28;20462;-81
2022/07/11 12:59:22;;;;;;;14.40;12.97;;;22.40;94.60;;;;;;5013145;28;20454;-81